sensor_id;sensor_type;location;lat;lon;timestamp;P1;durP1;ratioP1;P2;durP2;ratioP2
17207;SDS011;8720;48.488;9.202;2022-09-09T00:02:24;1.50;;;1.33;;
17207;SDS011;8720;48.488;9.202;2022-09-09T00:04:58;1.60;;;1.30;;
17207;SDS011;8720;48.488;9.202;2022-09-09T00:07:37;2.80;;;1.40;;
17207;SDS011;8720;48.488;9.202;2022-09-09T00:10:16;1.50;;;1.20;;
17207;SDS011;8720;48.488;9.202;2022-09-09T00:12:54;3.90;;;2.00;;
17207;SDS011;8720;48.488;9.202;2022-09-09T00:15:33;3.00;;;1.50;;
17207;SDS011;8720;48.488;9.202;2022-09-09T00:18:12;5.07;;;2.00;;
17207;SDS011;8720;48.488;9.202;2022-09-09T00:20:54;2.90;;;1.53;;
17207;SDS011;8720;48.488;9.202;2022-09-09T00:23:30;1.90;;;1.33;;
17207;SDS011;8720;48.488;9.202;2022-09-09T00:26:04;2.10;;;1.53;;
17207;SDS011;8720;48.488;9.202;2022-09-09T00:28:41;2.90;;;1.70;;
17207;SDS011;8720;48.488;9.202;2022-09-09T00:31:23;4.33;;;1.80;;
17207;SDS011;8720;48.488;9.202;2022-09-09T00:33:55;4.77;;;1.43;;
17207;SDS011;8720;48.488;9.202;2022-09-09T00:36:33;7.77;;;2.10;;
17207;SDS011;8720;48.488;9.202;2022-09-09T00:39:03;2.30;;;1.93;;
17207;SDS011;8720;48.488;9.202;2022-09-09T00:41:40;2.27;;;1.87;;
17207;SDS011;8720;48.488;9.202;2022-09-09T00:44:28;1.93;;;1.83;;
17207;SDS011;8720;48.488;9.202;2022-09-09T00:47:04;4.77;;;1.50;;
17207;SDS011;8720;48.488;9.202;2022-09-09T00:50:03;3.20;;;1.33;;
17207;SDS011;8720;48.488;9.202;2022-09-09T00:52:55;3.97;;;1.50;;
17207;SDS011;8720;48.488;9.202;2022-09-09T00:55:40;1.73;;;1.20;;
17207;SDS011;8720;48.488;9.202;2022-09-09T00:58:14;2.87;;;1.50;;
17207;SDS011;8720;48.488;9.202;2022-09-09T01:00:43;2.50;;;1.77;;
17207;SDS011;8720;48.488;9.202;2022-09-09T01:03:19;1.80;;;1.50;;
17207;SDS011;8720;48.488;9.202;2022-09-09T01:06:01;4.40;;;1.40;;
17207;SDS011;8720;48.488;9.202;2022-09-09T01:11:41;2.20;;;1.30;;
17207;SDS011;8720;48.488;9.202;2022-09-09T01:14:27;8.60;;;1.73;;
17207;SDS011;8720;48.488;9.202;2022-09-09T01:17:08;1.87;;;1.20;;
17207;SDS011;8720;48.488;9.202;2022-09-09T01:19:52;2.60;;;1.30;;
17207;SDS011;8720;48.488;9.202;2022-09-09T01:22:40;2.13;;;1.47;;
17207;SDS011;8720;48.488;9.202;2022-09-09T01:28:51;2.50;;;1.40;;
17207;SDS011;8720;48.488;9.202;2022-09-09T01:31:28;1.40;;;1.10;;
17207;SDS011;8720;48.488;9.202;2022-09-09T01:34:07;5.83;;;1.70;;
17207;SDS011;8720;48.488;9.202;2022-09-09T01:36:39;1.90;;;1.27;;
17207;SDS011;8720;48.488;9.202;2022-09-09T01:39:15;2.73;;;1.40;;
17207;SDS011;8720;48.488;9.202;2022-09-09T01:41:45;2.77;;;1.30;;
17207;SDS011;8720;48.488;9.202;2022-09-09T01:44:17;3.37;;;1.63;;
17207;SDS011;8720;48.488;9.202;2022-09-09T01:46:46;3.50;;;1.40;;
17207;SDS011;8720;48.488;9.202;2022-09-09T01:49:18;3.87;;;1.20;;
17207;SDS011;8720;48.488;9.202;2022-09-09T01:51:46;2.30;;;1.20;;
17207;SDS011;8720;48.488;9.202;2022-09-09T01:54:26;3.60;;;1.53;;
17207;SDS011;8720;48.488;9.202;2022-09-09T01:57:04;2.30;;;1.17;;
17207;SDS011;8720;48.488;9.202;2022-09-09T01:59:50;2.97;;;1.33;;
17207;SDS011;8720;48.488;9.202;2022-09-09T02:05:33;2.10;;;1.40;;
17207;SDS011;8720;48.488;9.202;2022-09-09T02:08:14;2.00;;;1.50;;
17207;SDS011;8720;48.488;9.202;2022-09-09T02:10:58;2.60;;;1.40;;
17207;SDS011;8720;48.488;9.202;2022-09-09T02:13:42;1.70;;;1.33;;
17207;SDS011;8720;48.488;9.202;2022-09-09T02:16:16;2.87;;;1.40;;
17207;SDS011;8720;48.488;9.202;2022-09-09T02:18:50;3.73;;;1.43;;
17207;SDS011;8720;48.488;9.202;2022-09-09T02:21:33;2.57;;;1.40;;
17207;SDS011;8720;48.488;9.202;2022-09-09T02:24:02;2.80;;;1.63;;
17207;SDS011;8720;48.488;9.202;2022-09-09T02:26:41;2.60;;;1.50;;
17207;SDS011;8720;48.488;9.202;2022-09-09T02:29:18;2.70;;;1.63;;
17207;SDS011;8720;48.488;9.202;2022-09-09T02:31:53;1.70;;;1.40;;
17207;SDS011;8720;48.488;9.202;2022-09-09T02:34:32;3.77;;;1.90;;
17207;SDS011;8720;48.488;9.202;2022-09-09T02:37:06;2.17;;;1.80;;
17207;SDS011;8720;48.488;9.202;2022-09-09T02:39:39;2.20;;;1.30;;
17207;SDS011;8720;48.488;9.202;2022-09-09T02:42:11;5.60;;;2.63;;
17207;SDS011;8720;48.488;9.202;2022-09-09T02:44:40;2.87;;;1.60;;
17207;SDS011;8720;48.488;9.202;2022-09-09T02:47:28;2.50;;;1.50;;
17207;SDS011;8720;48.488;9.202;2022-09-09T02:50:09;3.10;;;2.07;;
17207;SDS011;8720;48.488;9.202;2022-09-09T02:52:54;2.00;;;1.30;;
17207;SDS011;8720;48.488;9.202;2022-09-09T02:55:37;2.17;;;1.53;;
17207;SDS011;8720;48.488;9.202;2022-09-09T02:58:11;2.13;;;1.40;;
17207;SDS011;8720;48.488;9.202;2022-09-09T03:00:47;3.73;;;1.17;;
17207;SDS011;8720;48.488;9.202;2022-09-09T03:03:19;1.80;;;1.70;;
17207;SDS011;8720;48.488;9.202;2022-09-09T03:05:49;2.40;;;1.43;;
17207;SDS011;8720;48.488;9.202;2022-09-09T03:08:16;1.80;;;1.30;;
17207;SDS011;8720;48.488;9.202;2022-09-09T03:10:44;3.93;;;1.60;;
17207;SDS011;8720;48.488;9.202;2022-09-09T03:13:14;3.73;;;1.50;;
17207;SDS011;8720;48.488;9.202;2022-09-09T03:15:41;1.70;;;1.40;;
17207;SDS011;8720;48.488;9.202;2022-09-09T03:18:13;3.00;;;1.60;;
17207;SDS011;8720;48.488;9.202;2022-09-09T03:20:42;1.60;;;1.10;;
17207;SDS011;8720;48.488;9.202;2022-09-09T03:23:11;1.80;;;1.20;;
17207;SDS011;8720;48.488;9.202;2022-09-09T03:25:39;1.80;;;1.20;;
17207;SDS011;8720;48.488;9.202;2022-09-09T03:28:15;1.87;;;1.13;;
17207;SDS011;8720;48.488;9.202;2022-09-09T03:30:42;1.83;;;1.30;;
17207;SDS011;8720;48.488;9.202;2022-09-09T03:33:10;2.60;;;1.37;;
17207;SDS011;8720;48.488;9.202;2022-09-09T03:35:38;2.03;;;1.50;;
17207;SDS011;8720;48.488;9.202;2022-09-09T03:38:07;2.67;;;1.40;;
17207;SDS011;8720;48.488;9.202;2022-09-09T03:40:35;1.90;;;1.40;;
17207;SDS011;8720;48.488;9.202;2022-09-09T03:43:02;2.77;;;1.50;;
17207;SDS011;8720;48.488;9.202;2022-09-09T03:45:30;3.33;;;1.40;;
17207;SDS011;8720;48.488;9.202;2022-09-09T03:47:58;1.67;;;1.20;;
17207;SDS011;8720;48.488;9.202;2022-09-09T03:50:25;2.73;;;1.40;;
17207;SDS011;8720;48.488;9.202;2022-09-09T03:52:53;3.33;;;1.60;;
17207;SDS011;8720;48.488;9.202;2022-09-09T03:55:23;3.00;;;1.50;;
17207;SDS011;8720;48.488;9.202;2022-09-09T03:57:50;2.17;;;1.30;;
17207;SDS011;8720;48.488;9.202;2022-09-09T04:00:18;2.37;;;1.70;;
17207;SDS011;8720;48.488;9.202;2022-09-09T04:02:50;2.27;;;1.00;;
17207;SDS011;8720;48.488;9.202;2022-09-09T04:05:19;4.80;;;1.63;;
17207;SDS011;8720;48.488;9.202;2022-09-09T04:07:47;1.40;;;1.00;;
17207;SDS011;8720;48.488;9.202;2022-09-09T04:10:17;2.17;;;1.23;;
17207;SDS011;8720;48.488;9.202;2022-09-09T04:12:46;1.60;;;1.27;;
17207;SDS011;8720;48.488;9.202;2022-09-09T04:15:13;1.90;;;1.30;;
17207;SDS011;8720;48.488;9.202;2022-09-09T04:17:42;1.87;;;1.33;;
17207;SDS011;8720;48.488;9.202;2022-09-09T04:20:10;3.57;;;1.10;;
17207;SDS011;8720;48.488;9.202;2022-09-09T04:22:40;2.77;;;1.30;;
17207;SDS011;8720;48.488;9.202;2022-09-09T04:25:08;1.27;;;1.00;;
17207;SDS011;8720;48.488;9.202;2022-09-09T04:27:35;2.90;;;1.20;;
17207;SDS011;8720;48.488;9.202;2022-09-09T04:30:05;2.03;;;1.10;;
17207;SDS011;8720;48.488;9.202;2022-09-09T04:32:33;2.33;;;1.23;;
17207;SDS011;8720;48.488;9.202;2022-09-09T04:35:02;3.17;;;1.30;;
17207;SDS011;8720;48.488;9.202;2022-09-09T04:37:30;3.57;;;1.30;;
17207;SDS011;8720;48.488;9.202;2022-09-09T04:39:58;2.60;;;1.20;;
17207;SDS011;8720;48.488;9.202;2022-09-09T04:42:29;2.77;;;1.50;;
17207;SDS011;8720;48.488;9.202;2022-09-09T04:44:56;3.10;;;1.47;;
17207;SDS011;8720;48.488;9.202;2022-09-09T04:47:25;2.07;;;1.20;;
17207;SDS011;8720;48.488;9.202;2022-09-09T04:49:52;2.97;;;1.43;;
17207;SDS011;8720;48.488;9.202;2022-09-09T04:52:20;6.20;;;1.40;;
17207;SDS011;8720;48.488;9.202;2022-09-09T04:54:47;2.97;;;1.87;;
17207;SDS011;8720;48.488;9.202;2022-09-09T04:57:14;1.73;;;1.37;;
17207;SDS011;8720;48.488;9.202;2022-09-09T04:59:41;2.63;;;1.30;;
17207;SDS011;8720;48.488;9.202;2022-09-09T05:02:09;2.20;;;1.20;;
17207;SDS011;8720;48.488;9.202;2022-09-09T05:04:38;2.47;;;1.30;;
17207;SDS011;8720;48.488;9.202;2022-09-09T05:07:06;1.97;;;1.20;;
17207;SDS011;8720;48.488;9.202;2022-09-09T05:09:33;2.43;;;1.27;;
17207;SDS011;8720;48.488;9.202;2022-09-09T05:12:01;1.43;;;1.10;;
17207;SDS011;8720;48.488;9.202;2022-09-09T05:14:33;1.70;;;1.20;;
17207;SDS011;8720;48.488;9.202;2022-09-09T05:17:01;2.13;;;1.63;;
17207;SDS011;8720;48.488;9.202;2022-09-09T05:19:28;4.77;;;1.30;;
17207;SDS011;8720;48.488;9.202;2022-09-09T05:21:57;1.10;;;1.00;;
17207;SDS011;8720;48.488;9.202;2022-09-09T05:24:34;3.00;;;1.30;;
17207;SDS011;8720;48.488;9.202;2022-09-09T05:27:03;7.23;;;2.30;;
17207;SDS011;8720;48.488;9.202;2022-09-09T05:29:31;1.73;;;1.20;;
17207;SDS011;8720;48.488;9.202;2022-09-09T05:32:01;1.53;;;1.20;;
17207;SDS011;8720;48.488;9.202;2022-09-09T05:34:32;3.87;;;1.40;;
17207;SDS011;8720;48.488;9.202;2022-09-09T05:37:01;3.13;;;1.43;;
17207;SDS011;8720;48.488;9.202;2022-09-09T05:39:30;2.00;;;1.37;;
17207;SDS011;8720;48.488;9.202;2022-09-09T05:41:58;1.93;;;1.27;;
17207;SDS011;8720;48.488;9.202;2022-09-09T05:44:26;2.57;;;1.20;;
17207;SDS011;8720;48.488;9.202;2022-09-09T05:46:54;3.93;;;1.60;;
17207;SDS011;8720;48.488;9.202;2022-09-09T05:49:22;2.60;;;1.60;;
17207;SDS011;8720;48.488;9.202;2022-09-09T05:51:49;4.97;;;1.80;;
17207;SDS011;8720;48.488;9.202;2022-09-09T05:54:20;2.23;;;1.80;;
17207;SDS011;8720;48.488;9.202;2022-09-09T05:56:50;2.57;;;1.40;;
17207;SDS011;8720;48.488;9.202;2022-09-09T05:59:18;1.50;;;1.40;;
17207;SDS011;8720;48.488;9.202;2022-09-09T06:01:50;5.30;;;2.27;;
17207;SDS011;8720;48.488;9.202;2022-09-09T06:04:25;5.13;;;3.43;;
17207;SDS011;8720;48.488;9.202;2022-09-09T06:06:52;5.30;;;3.00;;
17207;SDS011;8720;48.488;9.202;2022-09-09T06:09:22;4.50;;;3.10;;
17207;SDS011;8720;48.488;9.202;2022-09-09T06:11:50;2.90;;;2.60;;
17207;SDS011;8720;48.488;9.202;2022-09-09T06:14:19;2.40;;;2.17;;
17207;SDS011;8720;48.488;9.202;2022-09-09T06:16:48;3.20;;;2.10;;
17207;SDS011;8720;48.488;9.202;2022-09-09T06:19:21;2.50;;;1.67;;
17207;SDS011;8720;48.488;9.202;2022-09-09T06:21:54;1.97;;;1.73;;
17207;SDS011;8720;48.488;9.202;2022-09-09T06:24:23;2.30;;;1.30;;
17207;SDS011;8720;48.488;9.202;2022-09-09T06:26:51;3.30;;;1.60;;
17207;SDS011;8720;48.488;9.202;2022-09-09T06:29:22;3.60;;;1.50;;
17207;SDS011;8720;48.488;9.202;2022-09-09T06:31:51;2.90;;;1.57;;
17207;SDS011;8720;48.488;9.202;2022-09-09T06:34:21;1.90;;;1.43;;
17207;SDS011;8720;48.488;9.202;2022-09-09T06:36:57;1.83;;;1.43;;
17207;SDS011;8720;48.488;9.202;2022-09-09T06:39:31;4.37;;;1.80;;
17207;SDS011;8720;48.488;9.202;2022-09-09T06:41:59;4.67;;;1.57;;
17207;SDS011;8720;48.488;9.202;2022-09-09T06:44:46;3.00;;;1.50;;
17207;SDS011;8720;48.488;9.202;2022-09-09T06:47:31;1.70;;;1.30;;
17207;SDS011;8720;48.488;9.202;2022-09-09T06:50:06;3.80;;;1.80;;
17207;SDS011;8720;48.488;9.202;2022-09-09T06:52:38;1.60;;;1.23;;
17207;SDS011;8720;48.488;9.202;2022-09-09T06:55:08;2.67;;;1.47;;
17207;SDS011;8720;48.488;9.202;2022-09-09T06:57:37;1.83;;;1.40;;
17207;SDS011;8720;48.488;9.202;2022-09-09T07:00:10;1.57;;;1.00;;
17207;SDS011;8720;48.488;9.202;2022-09-09T07:02:39;2.30;;;1.30;;
17207;SDS011;8720;48.488;9.202;2022-09-09T07:05:08;1.73;;;1.20;;
17207;SDS011;8720;48.488;9.202;2022-09-09T07:07:37;3.10;;;1.20;;
17207;SDS011;8720;48.488;9.202;2022-09-09T07:10:05;3.37;;;1.30;;
17207;SDS011;8720;48.488;9.202;2022-09-09T07:12:36;1.50;;;1.17;;
17207;SDS011;8720;48.488;9.202;2022-09-09T07:15:09;2.30;;;1.20;;
17207;SDS011;8720;48.488;9.202;2022-09-09T07:17:40;2.13;;;1.13;;
17207;SDS011;8720;48.488;9.202;2022-09-09T07:20:07;3.10;;;1.10;;
17207;SDS011;8720;48.488;9.202;2022-09-09T07:22:35;2.97;;;1.10;;
17207;SDS011;8720;48.488;9.202;2022-09-09T07:25:03;4.20;;;1.40;;
17207;SDS011;8720;48.488;9.202;2022-09-09T07:27:31;3.13;;;2.23;;
17207;SDS011;8720;48.488;9.202;2022-09-09T07:30:00;2.07;;;1.20;;
17207;SDS011;8720;48.488;9.202;2022-09-09T07:32:31;2.27;;;1.33;;
17207;SDS011;8720;48.488;9.202;2022-09-09T07:34:58;2.80;;;1.27;;
17207;SDS011;8720;48.488;9.202;2022-09-09T07:37:26;4.53;;;1.10;;
17207;SDS011;8720;48.488;9.202;2022-09-09T07:39:54;2.20;;;1.40;;
17207;SDS011;8720;48.488;9.202;2022-09-09T07:42:21;3.17;;;1.30;;
17207;SDS011;8720;48.488;9.202;2022-09-09T07:44:48;2.07;;;1.43;;
17207;SDS011;8720;48.488;9.202;2022-09-09T07:47:21;1.70;;;1.20;;
17207;SDS011;8720;48.488;9.202;2022-09-09T07:49:50;4.23;;;1.33;;
17207;SDS011;8720;48.488;9.202;2022-09-09T07:52:25;3.20;;;1.40;;
17207;SDS011;8720;48.488;9.202;2022-09-09T07:54:57;2.67;;;1.30;;
17207;SDS011;8720;48.488;9.202;2022-09-09T07:57:25;5.60;;;1.80;;
17207;SDS011;8720;48.488;9.202;2022-09-09T07:59:53;3.23;;;1.30;;
17207;SDS011;8720;48.488;9.202;2022-09-09T08:02:24;1.40;;;1.03;;
17207;SDS011;8720;48.488;9.202;2022-09-09T08:04:54;2.20;;;1.20;;
17207;SDS011;8720;48.488;9.202;2022-09-09T08:07:22;2.03;;;1.53;;
17207;SDS011;8720;48.488;9.202;2022-09-09T08:09:53;2.90;;;1.77;;
17207;SDS011;8720;48.488;9.202;2022-09-09T08:12:25;1.73;;;1.40;;
17207;SDS011;8720;48.488;9.202;2022-09-09T08:14:53;2.60;;;1.20;;
17207;SDS011;8720;48.488;9.202;2022-09-09T08:17:21;3.03;;;1.10;;
17207;SDS011;8720;48.488;9.202;2022-09-09T08:19:50;3.70;;;1.70;;
17207;SDS011;8720;48.488;9.202;2022-09-09T08:22:22;3.20;;;1.33;;
17207;SDS011;8720;48.488;9.202;2022-09-09T08:24:50;1.30;;;1.10;;
17207;SDS011;8720;48.488;9.202;2022-09-09T08:27:18;1.97;;;1.30;;
17207;SDS011;8720;48.488;9.202;2022-09-09T08:29:45;4.70;;;1.20;;
17207;SDS011;8720;48.488;9.202;2022-09-09T08:32:13;2.83;;;1.20;;
17207;SDS011;8720;48.488;9.202;2022-09-09T08:34:43;2.43;;;1.30;;
17207;SDS011;8720;48.488;9.202;2022-09-09T08:37:16;4.30;;;1.70;;
17207;SDS011;8720;48.488;9.202;2022-09-09T08:39:45;1.50;;;1.10;;
17207;SDS011;8720;48.488;9.202;2022-09-09T08:42:20;5.37;;;1.17;;
17207;SDS011;8720;48.488;9.202;2022-09-09T08:45:12;2.20;;;1.27;;
17207;SDS011;8720;48.488;9.202;2022-09-09T08:47:55;2.73;;;1.10;;
17207;SDS011;8720;48.488;9.202;2022-09-09T08:50:38;2.20;;;1.40;;
17207;SDS011;8720;48.488;9.202;2022-09-09T08:53:16;2.20;;;1.00;;
17207;SDS011;8720;48.488;9.202;2022-09-09T08:55:51;2.97;;;1.03;;
17207;SDS011;8720;48.488;9.202;2022-09-09T08:58:35;3.00;;;0.90;;
17207;SDS011;8720;48.488;9.202;2022-09-09T09:01:17;2.10;;;1.00;;
17207;SDS011;8720;48.488;9.202;2022-09-09T09:04:22;1.70;;;0.90;;
17207;SDS011;8720;48.488;9.202;2022-09-09T09:07:20;3.90;;;1.30;;
17207;SDS011;8720;48.488;9.202;2022-09-09T09:10:04;2.70;;;1.20;;
17207;SDS011;8720;48.488;9.202;2022-09-09T09:12:50;2.67;;;1.00;;
17207;SDS011;8720;48.488;9.202;2022-09-09T09:15:23;1.73;;;0.90;;
17207;SDS011;8720;48.488;9.202;2022-09-09T09:17:54;3.33;;;1.20;;
17207;SDS011;8720;48.488;9.202;2022-09-09T09:20:25;3.17;;;1.60;;
17207;SDS011;8720;48.488;9.202;2022-09-09T09:23:09;1.57;;;0.90;;
17207;SDS011;8720;48.488;9.202;2022-09-09T09:25:49;2.40;;;1.00;;
17207;SDS011;8720;48.488;9.202;2022-09-09T09:28:24;2.13;;;1.00;;
17207;SDS011;8720;48.488;9.202;2022-09-09T09:31:01;1.60;;;1.13;;
17207;SDS011;8720;48.488;9.202;2022-09-09T09:33:38;2.90;;;0.90;;
17207;SDS011;8720;48.488;9.202;2022-09-09T09:36:16;5.17;;;1.00;;
17207;SDS011;8720;48.488;9.202;2022-09-09T09:38:52;4.03;;;0.90;;
17207;SDS011;8720;48.488;9.202;2022-09-09T09:41:31;4.10;;;1.10;;
17207;SDS011;8720;48.488;9.202;2022-09-09T09:44:04;1.60;;;1.00;;
17207;SDS011;8720;48.488;9.202;2022-09-09T09:46:48;3.73;;;1.10;;
17207;SDS011;8720;48.488;9.202;2022-09-09T09:49:15;4.23;;;1.10;;
17207;SDS011;8720;48.488;9.202;2022-09-09T09:51:43;2.53;;;1.00;;
17207;SDS011;8720;48.488;9.202;2022-09-09T09:54:17;3.60;;;0.83;;
17207;SDS011;8720;48.488;9.202;2022-09-09T09:57:08;2.50;;;0.80;;
17207;SDS011;8720;48.488;9.202;2022-09-09T09:59:39;2.60;;;1.10;;
17207;SDS011;8720;48.488;9.202;2022-09-09T10:02:17;2.20;;;0.90;;
17207;SDS011;8720;48.488;9.202;2022-09-09T10:05:02;2.97;;;1.23;;
17207;SDS011;8720;48.488;9.202;2022-09-09T10:07:35;3.23;;;1.20;;
17207;SDS011;8720;48.488;9.202;2022-09-09T10:10:04;2.80;;;1.30;;
17207;SDS011;8720;48.488;9.202;2022-09-09T10:12:43;2.47;;;1.40;;
17207;SDS011;8720;48.488;9.202;2022-09-09T10:15:28;2.23;;;1.00;;
17207;SDS011;8720;48.488;9.202;2022-09-09T10:18:12;2.40;;;1.00;;
17207;SDS011;8720;48.488;9.202;2022-09-09T10:20:57;2.27;;;1.00;;
17207;SDS011;8720;48.488;9.202;2022-09-09T10:23:46;4.00;;;1.20;;
17207;SDS011;8720;48.488;9.202;2022-09-09T10:26:36;2.40;;;1.17;;
17207;SDS011;8720;48.488;9.202;2022-09-09T10:29:24;1.20;;;0.90;;
17207;SDS011;8720;48.488;9.202;2022-09-09T10:32:12;3.00;;;0.90;;
17207;SDS011;8720;48.488;9.202;2022-09-09T10:35:04;1.67;;;1.17;;
17207;SDS011;8720;48.488;9.202;2022-09-09T10:37:43;4.47;;;1.00;;
17207;SDS011;8720;48.488;9.202;2022-09-09T10:40:40;1.37;;;0.80;;
17207;SDS011;8720;48.488;9.202;2022-09-09T10:43:32;1.60;;;0.90;;
17207;SDS011;8720;48.488;9.202;2022-09-09T10:46:42;1.93;;;1.07;;
17207;SDS011;8720;48.488;9.202;2022-09-09T10:49:40;2.00;;;1.00;;
17207;SDS011;8720;48.488;9.202;2022-09-09T10:52:30;3.40;;;1.10;;
17207;SDS011;8720;48.488;9.202;2022-09-09T10:55:09;1.50;;;0.80;;
17207;SDS011;8720;48.488;9.202;2022-09-09T10:57:44;1.10;;;0.80;;
17207;SDS011;8720;48.488;9.202;2022-09-09T11:00:15;2.00;;;1.00;;
17207;SDS011;8720;48.488;9.202;2022-09-09T11:02:49;1.30;;;0.90;;
17207;SDS011;8720;48.488;9.202;2022-09-09T11:05:24;1.67;;;0.97;;
17207;SDS011;8720;48.488;9.202;2022-09-09T11:08:03;1.83;;;1.27;;
17207;SDS011;8720;48.488;9.202;2022-09-09T11:10:38;1.50;;;1.10;;
17207;SDS011;8720;48.488;9.202;2022-09-09T11:13:14;2.10;;;1.00;;
17207;SDS011;8720;48.488;9.202;2022-09-09T11:15:49;1.40;;;0.87;;
17207;SDS011;8720;48.488;9.202;2022-09-09T11:18:23;1.90;;;0.90;;
17207;SDS011;8720;48.488;9.202;2022-09-09T11:20:52;1.60;;;0.90;;
17207;SDS011;8720;48.488;9.202;2022-09-09T11:23:26;2.17;;;1.13;;
17207;SDS011;8720;48.488;9.202;2022-09-09T11:26:06;1.73;;;1.00;;
17207;SDS011;8720;48.488;9.202;2022-09-09T11:28:46;1.97;;;0.90;;
17207;SDS011;8720;48.488;9.202;2022-09-09T11:31:40;1.80;;;1.03;;
17207;SDS011;8720;48.488;9.202;2022-09-09T11:34:23;2.40;;;1.07;;
17207;SDS011;8720;48.488;9.202;2022-09-09T11:37:15;3.43;;;0.90;;
17207;SDS011;8720;48.488;9.202;2022-09-09T11:40:15;3.37;;;0.90;;
17207;SDS011;8720;48.488;9.202;2022-09-09T11:42:47;1.30;;;0.70;;
17207;SDS011;8720;48.488;9.202;2022-09-09T11:45:26;1.30;;;0.93;;
17207;SDS011;8720;48.488;9.202;2022-09-09T11:47:56;3.23;;;0.80;;
17207;SDS011;8720;48.488;9.202;2022-09-09T11:50:31;1.63;;;0.90;;
17207;SDS011;8720;48.488;9.202;2022-09-09T11:55:59;2.10;;;0.70;;
17207;SDS011;8720;48.488;9.202;2022-09-09T11:58:43;1.87;;;0.70;;
17207;SDS011;8720;48.488;9.202;2022-09-09T12:01:29;1.83;;;1.00;;
17207;SDS011;8720;48.488;9.202;2022-09-09T12:04:09;2.60;;;0.90;;
17207;SDS011;8720;48.488;9.202;2022-09-09T12:06:51;1.73;;;0.90;;
17207;SDS011;8720;48.488;9.202;2022-09-09T12:09:25;3.30;;;1.00;;
17207;SDS011;8720;48.488;9.202;2022-09-09T12:12:22;1.70;;;0.70;;
17207;SDS011;8720;48.488;9.202;2022-09-09T12:14:58;2.17;;;1.20;;
17207;SDS011;8720;48.488;9.202;2022-09-09T12:17:46;1.30;;;1.00;;
17207;SDS011;8720;48.488;9.202;2022-09-09T12:20:18;2.90;;;1.10;;
17207;SDS011;8720;48.488;9.202;2022-09-09T12:22:54;1.73;;;0.90;;
17207;SDS011;8720;48.488;9.202;2022-09-09T12:25:48;1.10;;;0.80;;
17207;SDS011;8720;48.488;9.202;2022-09-09T12:28:51;4.23;;;1.00;;
17207;SDS011;8720;48.488;9.202;2022-09-09T12:31:32;1.60;;;0.97;;
17207;SDS011;8720;48.488;9.202;2022-09-09T12:34:10;1.80;;;0.90;;
17207;SDS011;8720;48.488;9.202;2022-09-09T12:36:43;2.50;;;1.17;;
17207;SDS011;8720;48.488;9.202;2022-09-09T12:39:22;1.50;;;0.90;;
17207;SDS011;8720;48.488;9.202;2022-09-09T12:41:59;1.57;;;0.90;;
17207;SDS011;8720;48.488;9.202;2022-09-09T12:44:29;2.30;;;0.90;;
17207;SDS011;8720;48.488;9.202;2022-09-09T12:46:58;1.47;;;0.80;;
17207;SDS011;8720;48.488;9.202;2022-09-09T12:49:30;8.70;;;1.20;;
17207;SDS011;8720;48.488;9.202;2022-09-09T12:52:04;1.83;;;1.33;;
17207;SDS011;8720;48.488;9.202;2022-09-09T12:54:36;2.83;;;1.00;;
17207;SDS011;8720;48.488;9.202;2022-09-09T12:57:04;2.37;;;1.00;;
17207;SDS011;8720;48.488;9.202;2022-09-09T12:59:38;2.33;;;1.10;;
17207;SDS011;8720;48.488;9.202;2022-09-09T13:02:11;1.97;;;0.90;;
17207;SDS011;8720;48.488;9.202;2022-09-09T13:04:46;2.50;;;0.97;;
17207;SDS011;8720;48.488;9.202;2022-09-09T13:07:15;3.30;;;0.90;;
17207;SDS011;8720;48.488;9.202;2022-09-09T13:09:45;1.57;;;1.00;;
17207;SDS011;8720;48.488;9.202;2022-09-09T13:12:14;1.30;;;0.80;;
17207;SDS011;8720;48.488;9.202;2022-09-09T13:14:50;1.10;;;0.70;;
17207;SDS011;8720;48.488;9.202;2022-09-09T13:17:22;1.47;;;0.83;;
17207;SDS011;8720;48.488;9.202;2022-09-09T13:19:57;2.00;;;0.77;;
17207;SDS011;8720;48.488;9.202;2022-09-09T13:22:27;3.27;;;1.00;;
17207;SDS011;8720;48.488;9.202;2022-09-09T13:25:00;1.60;;;0.97;;
17207;SDS011;8720;48.488;9.202;2022-09-09T13:27:31;1.30;;;0.70;;
17207;SDS011;8720;48.488;9.202;2022-09-09T13:32:59;2.43;;;0.80;;
17207;SDS011;8720;48.488;9.202;2022-09-09T13:35:28;1.50;;;0.90;;
17207;SDS011;8720;48.488;9.202;2022-09-09T13:37:57;1.30;;;0.83;;
17207;SDS011;8720;48.488;9.202;2022-09-09T13:40:27;2.63;;;1.00;;
17207;SDS011;8720;48.488;9.202;2022-09-09T13:42:56;1.73;;;1.00;;
17207;SDS011;8720;48.488;9.202;2022-09-09T13:45:25;1.70;;;0.80;;
17207;SDS011;8720;48.488;9.202;2022-09-09T13:47:53;2.33;;;0.97;;
17207;SDS011;8720;48.488;9.202;2022-09-09T13:50:22;2.23;;;0.83;;
17207;SDS011;8720;48.488;9.202;2022-09-09T13:52:53;1.87;;;0.90;;
17207;SDS011;8720;48.488;9.202;2022-09-09T13:55:24;2.23;;;1.10;;
17207;SDS011;8720;48.488;9.202;2022-09-09T13:57:56;2.90;;;0.90;;
17207;SDS011;8720;48.488;9.202;2022-09-09T14:00:25;1.40;;;0.70;;
17207;SDS011;8720;48.488;9.202;2022-09-09T14:02:56;2.30;;;0.90;;
17207;SDS011;8720;48.488;9.202;2022-09-09T14:05:25;3.00;;;0.87;;
17207;SDS011;8720;48.488;9.202;2022-09-09T14:07:52;2.40;;;0.90;;
17207;SDS011;8720;48.488;9.202;2022-09-09T14:10:20;2.03;;;0.90;;
17207;SDS011;8720;48.488;9.202;2022-09-09T14:12:48;1.77;;;0.90;;
17207;SDS011;8720;48.488;9.202;2022-09-09T14:15:16;2.80;;;0.80;;
17207;SDS011;8720;48.488;9.202;2022-09-09T14:17:44;3.17;;;0.97;;
17207;SDS011;8720;48.488;9.202;2022-09-09T14:20:11;1.20;;;0.80;;
17207;SDS011;8720;48.488;9.202;2022-09-09T14:22:40;1.70;;;0.90;;
17207;SDS011;8720;48.488;9.202;2022-09-09T14:25:09;1.67;;;0.77;;
17207;SDS011;8720;48.488;9.202;2022-09-09T14:27:36;3.40;;;1.00;;
17207;SDS011;8720;48.488;9.202;2022-09-09T14:30:06;2.10;;;0.97;;
17207;SDS011;8720;48.488;9.202;2022-09-09T14:32:35;2.07;;;1.20;;
17207;SDS011;8720;48.488;9.202;2022-09-09T14:35:02;1.57;;;0.70;;
17207;SDS011;8720;48.488;9.202;2022-09-09T14:37:30;1.80;;;0.80;;
17207;SDS011;8720;48.488;9.202;2022-09-09T14:39:58;1.30;;;1.00;;
17207;SDS011;8720;48.488;9.202;2022-09-09T14:42:25;1.50;;;0.80;;
17207;SDS011;8720;48.488;9.202;2022-09-09T14:44:54;2.30;;;0.70;;
17207;SDS011;8720;48.488;9.202;2022-09-09T14:47:23;1.07;;;0.67;;
17207;SDS011;8720;48.488;9.202;2022-09-09T14:49:51;2.03;;;1.00;;
17207;SDS011;8720;48.488;9.202;2022-09-09T14:52:18;2.73;;;0.90;;
17207;SDS011;8720;48.488;9.202;2022-09-09T14:54:46;2.00;;;0.80;;
17207;SDS011;8720;48.488;9.202;2022-09-09T14:57:14;1.50;;;0.80;;
17207;SDS011;8720;48.488;9.202;2022-09-09T14:59:41;1.40;;;1.03;;
17207;SDS011;8720;48.488;9.202;2022-09-09T15:02:09;1.60;;;0.73;;
17207;SDS011;8720;48.488;9.202;2022-09-09T15:04:43;1.47;;;0.90;;
17207;SDS011;8720;48.488;9.202;2022-09-09T15:07:11;2.00;;;0.90;;
17207;SDS011;8720;48.488;9.202;2022-09-09T15:09:38;2.77;;;0.70;;
17207;SDS011;8720;48.488;9.202;2022-09-09T15:12:05;2.07;;;0.90;;
17207;SDS011;8720;48.488;9.202;2022-09-09T15:14:33;3.83;;;0.80;;
17207;SDS011;8720;48.488;9.202;2022-09-09T15:17:00;1.87;;;0.83;;
17207;SDS011;8720;48.488;9.202;2022-09-09T15:19:27;2.40;;;0.97;;
17207;SDS011;8720;48.488;9.202;2022-09-09T15:21:56;2.20;;;0.77;;
17207;SDS011;8720;48.488;9.202;2022-09-09T15:24:24;2.03;;;0.83;;
17207;SDS011;8720;48.488;9.202;2022-09-09T15:26:52;2.67;;;0.80;;
17207;SDS011;8720;48.488;9.202;2022-09-09T15:29:19;1.93;;;0.97;;
17207;SDS011;8720;48.488;9.202;2022-09-09T15:31:46;3.97;;;1.07;;
17207;SDS011;8720;48.488;9.202;2022-09-09T15:34:14;1.50;;;0.80;;
17207;SDS011;8720;48.488;9.202;2022-09-09T15:36:41;1.20;;;0.70;;
17207;SDS011;8720;48.488;9.202;2022-09-09T15:39:13;1.30;;;0.70;;
17207;SDS011;8720;48.488;9.202;2022-09-09T15:41:42;2.50;;;1.00;;
17207;SDS011;8720;48.488;9.202;2022-09-09T15:44:10;3.00;;;1.03;;
17207;SDS011;8720;48.488;9.202;2022-09-09T15:46:39;1.30;;;0.90;;
17207;SDS011;8720;48.488;9.202;2022-09-09T15:49:09;1.60;;;0.97;;
17207;SDS011;8720;48.488;9.202;2022-09-09T15:51:39;2.07;;;1.33;;
17207;SDS011;8720;48.488;9.202;2022-09-09T15:54:08;1.00;;;0.70;;
17207;SDS011;8720;48.488;9.202;2022-09-09T15:56:40;2.20;;;0.70;;